sensor_id;sensor_type;location;lat;lon;timestamp;P1;durP1;ratioP1;P2;durP2;ratioP2
12072;SDS011;6098;49.004;8.372;2024-03-06T00:11:15;6.94;;;2.82;;
12072;SDS011;6098;49.004;8.372;2024-03-06T00:26:07;4.48;;;2.78;;
12072;SDS011;6098;49.004;8.372;2024-03-06T00:41:00;3.68;;;2.83;;
12072;SDS011;6098;49.004;8.372;2024-03-06T00:55:52;5.50;;;3.33;;
12072;SDS011;6098;49.004;8.372;2024-03-06T01:10:44;6.69;;;2.93;;
12072;SDS011;6098;49.004;8.372;2024-03-06T01:25:35;4.76;;;3.71;;
12072;SDS011;6098;49.004;8.372;2024-03-06T01:40:27;5.00;;;3.18;;
12072;SDS011;6098;49.004;8.372;2024-03-06T01:55:18;4.22;;;3.21;;
12072;SDS011;6098;49.004;8.372;2024-03-06T02:10:09;5.39;;;3.77;;
12072;SDS011;6098;49.004;8.372;2024-03-06T02:25:05;6.17;;;4.30;;
12072;SDS011;6098;49.004;8.372;2024-03-06T02:39:57;6.06;;;4.06;;
12072;SDS011;6098;49.004;8.372;2024-03-06T02:54:49;7.50;;;4.33;;
12072;SDS011;6098;49.004;8.372;2024-03-06T03:09:52;7.76;;;4.73;;
12072;SDS011;6098;49.004;8.372;2024-03-06T03:24:43;6.56;;;4.60;;
12072;SDS011;6098;49.004;8.372;2024-03-06T03:39:35;6.83;;;4.66;;
12072;SDS011;6098;49.004;8.372;2024-03-06T03:54:26;6.84;;;4.68;;
12072;SDS011;6098;49.004;8.372;2024-03-06T04:09:17;7.90;;;4.09;;
12072;SDS011;6098;49.004;8.372;2024-03-06T04:24:10;5.59;;;3.38;;
12072;SDS011;6098;49.004;8.372;2024-03-06T04:39:01;4.43;;;3.11;;
12072;SDS011;6098;49.004;8.372;2024-03-06T04:53:53;4.78;;;3.27;;
12072;SDS011;6098;49.004;8.372;2024-03-06T05:08:44;5.93;;;3.33;;
12072;SDS011;6098;49.004;8.372;2024-03-06T05:23:35;6.73;;;3.87;;
12072;SDS011;6098;49.004;8.372;2024-03-06T05:38:26;7.24;;;3.08;;
12072;SDS011;6098;49.004;8.372;2024-03-06T05:53:18;5.58;;;3.13;;
12072;SDS011;6098;49.004;8.372;2024-03-06T06:08:08;5.42;;;3.98;;
12072;SDS011;6098;49.004;8.372;2024-03-06T06:23:00;5.08;;;3.66;;
12072;SDS011;6098;49.004;8.372;2024-03-06T06:37:52;5.33;;;3.30;;
12072;SDS011;6098;49.004;8.372;2024-03-06T06:52:45;6.53;;;3.59;;
12072;SDS011;6098;49.004;8.372;2024-03-06T07:07:36;5.51;;;3.96;;
12072;SDS011;6098;49.004;8.372;2024-03-06T07:22:27;6.63;;;3.84;;
12072;SDS011;6098;49.004;8.372;2024-03-06T07:37:18;6.34;;;3.96;;
12072;SDS011;6098;49.004;8.372;2024-03-06T07:52:11;6.19;;;4.47;;
12072;SDS011;6098;49.004;8.372;2024-03-06T08:07:02;6.90;;;5.14;;
12072;SDS011;6098;49.004;8.372;2024-03-06T08:21:54;6.53;;;4.88;;
12072;SDS011;6098;49.004;8.372;2024-03-06T08:36:45;6.02;;;4.32;;
12072;SDS011;6098;49.004;8.372;2024-03-06T08:51:37;6.80;;;4.52;;
12072;SDS011;6098;49.004;8.372;2024-03-06T09:06:28;6.84;;;4.04;;
12072;SDS011;6098;49.004;8.372;2024-03-06T09:21:21;9.19;;;5.03;;
12072;SDS011;6098;49.004;8.372;2024-03-06T09:36:13;6.99;;;4.34;;
12072;SDS011;6098;49.004;8.372;2024-03-06T09:51:06;6.61;;;4.33;;
12072;SDS011;6098;49.004;8.372;2024-03-06T10:05:58;7.54;;;4.81;;
12072;SDS011;6098;49.004;8.372;2024-03-06T10:20:50;7.40;;;4.64;;
12072;SDS011;6098;49.004;8.372;2024-03-06T10:35:41;7.57;;;5.02;;
12072;SDS011;6098;49.004;8.372;2024-03-06T10:50:32;10.89;;;5.34;;
12072;SDS011;6098;49.004;8.372;2024-03-06T11:05:23;8.92;;;5.68;;
12072;SDS011;6098;49.004;8.372;2024-03-06T11:20:17;9.28;;;5.59;;
12072;SDS011;6098;49.004;8.372;2024-03-06T11:35:12;8.43;;;5.39;;
12072;SDS011;6098;49.004;8.372;2024-03-06T11:50:04;7.34;;;5.56;;
12072;SDS011;6098;49.004;8.372;2024-03-06T12:04:56;7.98;;;5.86;;
12072;SDS011;6098;49.004;8.372;2024-03-06T12:19:49;8.82;;;5.80;;
12072;SDS011;6098;49.004;8.372;2024-03-06T12:34:41;15.61;;;5.68;;
12072;SDS011;6098;49.004;8.372;2024-03-06T12:49:34;9.72;;;5.77;;
12072;SDS011;6098;49.004;8.372;2024-03-06T13:04:27;6.20;;;4.61;;
12072;SDS011;6098;49.004;8.372;2024-03-06T13:19:21;7.40;;;4.99;;
12072;SDS011;6098;49.004;8.372;2024-03-06T13:34:11;8.10;;;5.64;;
12072;SDS011;6098;49.004;8.372;2024-03-06T13:49:02;9.56;;;5.22;;
12072;SDS011;6098;49.004;8.372;2024-03-06T14:03:54;8.24;;;5.49;;
12072;SDS011;6098;49.004;8.372;2024-03-06T14:18:46;9.40;;;6.03;;
12072;SDS011;6098;49.004;8.372;2024-03-06T14:33:40;10.16;;;5.82;;
12072;SDS011;6098;49.004;8.372;2024-03-06T14:48:33;11.47;;;7.30;;
12072;SDS011;6098;49.004;8.372;2024-03-06T15:03:23;14.52;;;7.79;;
12072;SDS011;6098;49.004;8.372;2024-03-06T15:18:15;14.19;;;8.40;;
12072;SDS011;6098;49.004;8.372;2024-03-06T15:33:06;16.43;;;8.11;;
12072;SDS011;6098;49.004;8.372;2024-03-06T15:47:58;12.97;;;8.41;;
12072;SDS011;6098;49.004;8.372;2024-03-06T16:02:48;15.50;;;8.54;;
12072;SDS011;6098;49.004;8.372;2024-03-06T16:17:40;14.78;;;8.96;;
12072;SDS011;6098;49.004;8.372;2024-03-06T16:32:31;16.09;;;8.31;;
12072;SDS011;6098;49.004;8.372;2024-03-06T16:47:23;15.39;;;9.30;;
12072;SDS011;6098;49.004;8.372;2024-03-06T17:02:14;19.04;;;10.29;;
12072;SDS011;6098;49.004;8.372;2024-03-06T17:17:05;19.33;;;10.68;;
12072;SDS011;6098;49.004;8.372;2024-03-06T17:31:57;20.28;;;11.94;;
12072;SDS011;6098;49.004;8.372;2024-03-06T17:46:49;24.33;;;12.21;;
12072;SDS011;6098;49.004;8.372;2024-03-06T18:01:41;25.11;;;12.02;;
12072;SDS011;6098;49.004;8.372;2024-03-06T18:16:32;25.77;;;12.87;;
12072;SDS011;6098;49.004;8.372;2024-03-06T18:31:23;26.19;;;14.74;;
12072;SDS011;6098;49.004;8.372;2024-03-06T18:46:14;30.08;;;15.31;;
12072;SDS011;6098;49.004;8.372;2024-03-06T19:01:06;28.20;;;15.14;;
12072;SDS011;6098;49.004;8.372;2024-03-06T19:15:57;31.47;;;17.48;;
12072;SDS011;6098;49.004;8.372;2024-03-06T19:30:48;26.10;;;14.28;;
12072;SDS011;6098;49.004;8.372;2024-03-06T19:45:40;32.76;;;16.94;;
12072;SDS011;6098;49.004;8.372;2024-03-06T20:00:32;24.68;;;13.64;;
12072;SDS011;6098;49.004;8.372;2024-03-06T20:15:24;26.53;;;14.10;;
12072;SDS011;6098;49.004;8.372;2024-03-06T20:30:15;24.88;;;12.50;;
12072;SDS011;6098;49.004;8.372;2024-03-06T20:45:07;27.89;;;13.72;;
12072;SDS011;6098;49.004;8.372;2024-03-06T21:00:03;25.44;;;13.12;;
12072;SDS011;6098;49.004;8.372;2024-03-06T21:30:24;23.54;;;11.86;;
12072;SDS011;6098;49.004;8.372;2024-03-06T21:45:34;22.72;;;11.99;;
12072;SDS011;6098;49.004;8.372;2024-03-06T22:00:26;27.50;;;13.94;;
12072;SDS011;6098;49.004;8.372;2024-03-06T22:15:17;24.07;;;13.17;;
12072;SDS011;6098;49.004;8.372;2024-03-06T22:30:10;23.71;;;14.91;;
12072;SDS011;6098;49.004;8.372;2024-03-06T22:45:06;25.23;;;13.03;;
12072;SDS011;6098;49.004;8.372;2024-03-06T23:00:00;29.62;;;15.12;;
12072;SDS011;6098;49.004;8.372;2024-03-06T23:14:52;26.31;;;15.52;;
12072;SDS011;6098;49.004;8.372;2024-03-06T23:29:43;31.57;;;17.66;;
12072;SDS011;6098;49.004;8.372;2024-03-06T23:44:37;29.77;;;16.39;;
12072;SDS011;6098;49.004;8.372;2024-03-06T23:59:28;34.07;;;17.64;;
